sensor_id;sensor_type;location;lat;lon;timestamp;temperature;humidity
2653;DHT22;1336;48.692;9.144;2023-03-31T05:00:42;11.50;97.20
2653;DHT22;1336;48.692;9.144;2023-03-31T05:01:34;11.60;97.20
2653;DHT22;1336;48.692;9.144;2023-03-31T05:02:25;11.60;97.20
2653;DHT22;1336;48.692;9.144;2023-03-31T05:03:17;11.60;97.20
2653;DHT22;1336;48.692;9.144;2023-03-31T05:04:08;11.60;97.20
2653;DHT22;1336;48.692;9.144;2023-03-31T05:04:59;11.60;97.20
2653;DHT22;1336;48.692;9.144;2023-03-31T05:05:50;11.60;97.20
2653;DHT22;1336;48.692;9.144;2023-03-31T05:06:42;11.60;97.20
2653;DHT22;1336;48.692;9.144;2023-03-31T05:07:33;11.60;97.20
2653;DHT22;1336;48.692;9.144;2023-03-31T05:08:24;11.60;97.20
2653;DHT22;1336;48.692;9.144;2023-03-31T05:09:16;11.60;97.20
2653;DHT22;1336;48.692;9.144;2023-03-31T05:10:08;11.60;97.20
2653;DHT22;1336;48.692;9.144;2023-03-31T05:11:01;11.60;97.20
2653;DHT22;1336;48.692;9.144;2023-03-31T05:11:53;11.60;97.20
2653;DHT22;1336;48.692;9.144;2023-03-31T05:12:44;11.60;97.20
2653;DHT22;1336;48.692;9.144;2023-03-31T05:13:35;11.60;97.20
2653;DHT22;1336;48.692;9.144;2023-03-31T05:14:26;11.60;97.20
2653;DHT22;1336;48.692;9.144;2023-03-31T05:15:18;11.60;97.20
2653;DHT22;1336;48.692;9.144;2023-03-31T05:16:11;11.60;97.20
2653;DHT22;1336;48.692;9.144;2023-03-31T05:17:04;11.60;97.20
2653;DHT22;1336;48.692;9.144;2023-03-31T05:17:56;11.60;97.20
2653;DHT22;1336;48.692;9.144;2023-03-31T05:18:48;11.60;97.20
2653;DHT22;1336;48.692;9.144;2023-03-31T05:19:39;11.60;97.20
2653;DHT22;1336;48.692;9.144;2023-03-31T05:20:31;11.60;97.20
2653;DHT22;1336;48.692;9.144;2023-03-31T05:21:22;11.60;97.20
2653;DHT22;1336;48.692;9.144;2023-03-31T05:22:16;11.60;97.20
2653;DHT22;1336;48.692;9.144;2023-03-31T05:23:10;11.60;97.20
2653;DHT22;1336;48.692;9.144;2023-03-31T05:24:01;11.60;97.20
2653;DHT22;1336;48.692;9.144;2023-03-31T05:24:52;11.60;97.20
2653;DHT22;1336;48.692;9.144;2023-03-31T05:25:44;11.60;97.20
2653;DHT22;1336;48.692;9.144;2023-03-31T05:26:34;11.50;97.20
2653;DHT22;1336;48.692;9.144;2023-03-31T05:27:26;11.60;97.20
2653;DHT22;1336;48.692;9.144;2023-03-31T05:28:17;11.60;97.20
2653;DHT22;1336;48.692;9.144;2023-03-31T05:29:09;11.60;97.20
2653;DHT22;1336;48.692;9.144;2023-03-31T05:30:00;11.60;97.20
2653;DHT22;1336;48.692;9.144;2023-03-31T05:30:51;11.60;97.20
2653;DHT22;1336;48.692;9.144;2023-03-31T05:31:44;11.60;97.20
2653;DHT22;1336;48.692;9.144;2023-03-31T05:32:36;11.60;97.20
2653;DHT22;1336;48.692;9.144;2023-03-31T05:33:27;11.60;97.20
2653;DHT22;1336;48.692;9.144;2023-03-31T05:34:19;11.60;97.20
2653;DHT22;1336;48.692;9.144;2023-03-31T05:35:10;11.60;97.20
2653;DHT22;1336;48.692;9.144;2023-03-31T05:36:02;11.70;97.20
2653;DHT22;1336;48.692;9.144;2023-03-31T05:36:53;11.60;97.20
2653;DHT22;1336;48.692;9.144;2023-03-31T05:37:44;11.60;97.20
2653;DHT22;1336;48.692;9.144;2023-03-31T05:38:35;11.60;97.20
2653;DHT22;1336;48.692;9.144;2023-03-31T05:39:27;11.60;97.20
2653;DHT22;1336;48.692;9.144;2023-03-31T05:40:22;11.60;97.20
2653;DHT22;1336;48.692;9.144;2023-03-31T05:41:14;11.60;97.20
2653;DHT22;1336;48.692;9.144;2023-03-31T05:42:06;11.70;97.20
2653;DHT22;1336;48.692;9.144;2023-03-31T05:42:57;11.70;97.20
2653;DHT22;1336;48.692;9.144;2023-03-31T05:43:48;11.70;97.20
2653;DHT22;1336;48.692;9.144;2023-03-31T05:44:40;11.70;97.20
2653;DHT22;1336;48.692;9.144;2023-03-31T05:45:31;11.70;97.20
2653;DHT22;1336;48.692;9.144;2023-03-31T05:46:22;11.70;97.20
2653;DHT22;1336;48.692;9.144;2023-03-31T05:47:15;11.70;97.20
2653;DHT22;1336;48.692;9.144;2023-03-31T05:48:06;11.70;97.20
2653;DHT22;1336;48.692;9.144;2023-03-31T05:48:57;11.70;97.20
2653;DHT22;1336;48.692;9.144;2023-03-31T05:49:49;11.70;97.20
2653;DHT22;1336;48.692;9.144;2023-03-31T05:50:40;11.80;97.20
2653;DHT22;1336;48.692;9.144;2023-03-31T05:51:32;11.80;97.20
2653;DHT22;1336;48.692;9.144;2023-03-31T05:52:23;11.80;97.20
2653;DHT22;1336;48.692;9.144;2023-03-31T05:53:15;11.80;97.20
2653;DHT22;1336;48.692;9.144;2023-03-31T05:54:05;11.80;97.20
2653;DHT22;1336;48.692;9.144;2023-03-31T05:54:57;11.80;97.20
2653;DHT22;1336;48.692;9.144;2023-03-31T05:55:48;11.80;97.20
2653;DHT22;1336;48.692;9.144;2023-03-31T05:56:40;11.80;97.20
2653;DHT22;1336;48.692;9.144;2023-03-31T05:57:30;11.80;97.20
2653;DHT22;1336;48.692;9.144;2023-03-31T05:58:22;11.80;97.20
2653;DHT22;1336;48.692;9.144;2023-03-31T05:59:13;11.80;97.20
2653;DHT22;1336;48.692;9.144;2023-03-31T06:00:07;11.80;97.20
2653;DHT22;1336;48.692;9.144;2023-03-31T06:01:01;11.80;97.20
2653;DHT22;1336;48.692;9.144;2023-03-31T06:01:55;11.90;97.20
2653;DHT22;1336;48.692;9.144;2023-03-31T06:02:47;11.80;97.20
2653;DHT22;1336;48.692;9.144;2023-03-31T06:03:40;11.90;97.20
2653;DHT22;1336;48.692;9.144;2023-03-31T06:04:31;11.80;97.20
2653;DHT22;1336;48.692;9.144;2023-03-31T06:05:22;11.80;97.20
2653;DHT22;1336;48.692;9.144;2023-03-31T06:06:16;11.80;97.20
2653;DHT22;1336;48.692;9.144;2023-03-31T06:07:07;11.80;97.20
2653;DHT22;1336;48.692;9.144;2023-03-31T06:07:59;11.80;97.20
2653;DHT22;1336;48.692;9.144;2023-03-31T06:08:51;11.80;97.20
2653;DHT22;1336;48.692;9.144;2023-03-31T06:09:43;11.80;97.20
2653;DHT22;1336;48.692;9.144;2023-03-31T06:10:37;11.90;97.20
2653;DHT22;1336;48.692;9.144;2023-03-31T06:11:29;11.90;97.20
2653;DHT22;1336;48.692;9.144;2023-03-31T06:12:20;11.90;97.20
2653;DHT22;1336;48.692;9.144;2023-03-31T06:13:11;11.90;97.20
2653;DHT22;1336;48.692;9.144;2023-03-31T06:14:02;11.90;97.20
2653;DHT22;1336;48.692;9.144;2023-03-31T06:14:54;11.90;97.20
2653;DHT22;1336;48.692;9.144;2023-03-31T06:15:52;11.90;97.20
2653;DHT22;1336;48.692;9.144;2023-03-31T06:16:43;11.90;97.20
2653;DHT22;1336;48.692;9.144;2023-03-31T06:17:37;11.90;97.20
2653;DHT22;1336;48.692;9.144;2023-03-31T06:18:32;11.90;97.20
2653;DHT22;1336;48.692;9.144;2023-03-31T06:19:23;11.90;97.20
2653;DHT22;1336;48.692;9.144;2023-03-31T06:20:16;11.90;97.20
2653;DHT22;1336;48.692;9.144;2023-03-31T06:21:07;11.90;97.20
2653;DHT22;1336;48.692;9.144;2023-03-31T06:22:01;12.00;97.20
2653;DHT22;1336;48.692;9.144;2023-03-31T06:22:52;12.00;97.20
2653;DHT22;1336;48.692;9.144;2023-03-31T06:23:44;12.00;97.20
2653;DHT22;1336;48.692;9.144;2023-03-31T06:24:35;12.00;97.20
2653;DHT22;1336;48.692;9.144;2023-03-31T06:25:27;12.00;97.20
2653;DHT22;1336;48.692;9.144;2023-03-31T06:26:18;12.00;97.20
2653;DHT22;1336;48.692;9.144;2023-03-31T06:27:10;12.00;97.20
2653;DHT22;1336;48.692;9.144;2023-03-31T06:28:00;12.00;97.20
2653;DHT22;1336;48.692;9.144;2023-03-31T06:28:52;12.00;97.20
2653;DHT22;1336;48.692;9.144;2023-03-31T06:29:43;12.00;97.20
2653;DHT22;1336;48.692;9.144;2023-03-31T06:30:35;12.00;97.20
2653;DHT22;1336;48.692;9.144;2023-03-31T06:31:26;12.00;97.20
2653;DHT22;1336;48.692;9.144;2023-03-31T06:32:18;12.00;97.20
2653;DHT22;1336;48.692;9.144;2023-03-31T06:33:08;12.00;97.20
2653;DHT22;1336;48.692;9.144;2023-03-31T06:34:02;12.00;97.20
2653;DHT22;1336;48.692;9.144;2023-03-31T06:34:52;12.00;97.20
2653;DHT22;1336;48.692;9.144;2023-03-31T06:35:44;12.00;97.20
2653;DHT22;1336;48.692;9.144;2023-03-31T06:36:35;12.00;97.20
2653;DHT22;1336;48.692;9.144;2023-03-31T06:37:26;11.90;97.20
2653;DHT22;1336;48.692;9.144;2023-03-31T06:38:17;11.90;97.20
2653;DHT22;1336;48.692;9.144;2023-03-31T06:39:09;11.80;97.20
2653;DHT22;1336;48.692;9.144;2023-03-31T06:40:00;11.80;97.20
2653;DHT22;1336;48.692;9.144;2023-03-31T06:40:52;11.80;97.20
2653;DHT22;1336;48.692;9.144;2023-03-31T06:41:43;11.80;97.20
2653;DHT22;1336;48.692;9.144;2023-03-31T06:42:35;11.80;97.20
2653;DHT22;1336;48.692;9.144;2023-03-31T06:43:26;11.80;97.20
2653;DHT22;1336;48.692;9.144;2023-03-31T06:44:17;11.80;97.20
2653;DHT22;1336;48.692;9.144;2023-03-31T06:45:12;11.70;97.20
2653;DHT22;1336;48.692;9.144;2023-03-31T06:46:04;11.70;97.20
2653;DHT22;1336;48.692;9.144;2023-03-31T06:46:55;11.70;97.20
2653;DHT22;1336;48.692;9.144;2023-03-31T06:47:47;11.70;97.20
2653;DHT22;1336;48.692;9.144;2023-03-31T06:48:38;11.70;97.20
2653;DHT22;1336;48.692;9.144;2023-03-31T06:49:32;11.60;97.20
2653;DHT22;1336;48.692;9.144;2023-03-31T06:50:22;11.70;97.20
2653;DHT22;1336;48.692;9.144;2023-03-31T06:51:14;11.60;97.20
2653;DHT22;1336;48.692;9.144;2023-03-31T06:52:05;11.60;97.20
2653;DHT22;1336;48.692;9.144;2023-03-31T06:52:57;11.70;97.20
2653;DHT22;1336;48.692;9.144;2023-03-31T06:53:48;11.70;97.20
2653;DHT22;1336;48.692;9.144;2023-03-31T06:54:39;11.70;97.20
2653;DHT22;1336;48.692;9.144;2023-03-31T06:55:31;11.60;97.20
2653;DHT22;1336;48.692;9.144;2023-03-31T06:56:23;11.60;97.20
2653;DHT22;1336;48.692;9.144;2023-03-31T06:57:14;11.60;97.20
2653;DHT22;1336;48.692;9.144;2023-03-31T06:58:05;11.60;97.20
2653;DHT22;1336;48.692;9.144;2023-03-31T06:58:56;11.50;97.20
2653;DHT22;1336;48.692;9.144;2023-03-31T06:59:48;11.50;97.20
2653;DHT22;1336;48.692;9.144;2023-03-31T07:00:39;11.50;97.20
2653;DHT22;1336;48.692;9.144;2023-03-31T07:01:31;11.50;97.20
2653;DHT22;1336;48.692;9.144;2023-03-31T07:02:22;11.50;97.20
2653;DHT22;1336;48.692;9.144;2023-03-31T07:03:14;11.50;97.20
2653;DHT22;1336;48.692;9.144;2023-03-31T07:04:08;11.40;97.20
2653;DHT22;1336;48.692;9.144;2023-03-31T07:05:01;11.40;97.20
2653;DHT22;1336;48.692;9.144;2023-03-31T07:05:53;11.40;97.20
2653;DHT22;1336;48.692;9.144;2023-03-31T07:06:45;11.40;97.20
2653;DHT22;1336;48.692;9.144;2023-03-31T07:07:35;11.30;97.20
2653;DHT22;1336;48.692;9.144;2023-03-31T07:08:27;11.30;97.20
2653;DHT22;1336;48.692;9.144;2023-03-31T07:09:18;11.30;97.20
2653;DHT22;1336;48.692;9.144;2023-03-31T07:10:12;11.30;97.20
2653;DHT22;1336;48.692;9.144;2023-03-31T07:11:03;11.30;97.20
2653;DHT22;1336;48.692;9.144;2023-03-31T07:11:55;11.20;97.20
2653;DHT22;1336;48.692;9.144;2023-03-31T07:12:45;11.20;97.20
2653;DHT22;1336;48.692;9.144;2023-03-31T07:13:37;11.20;97.20
2653;DHT22;1336;48.692;9.144;2023-03-31T07:14:28;11.20;97.20
2653;DHT22;1336;48.692;9.144;2023-03-31T07:15:20;11.20;97.20
2653;DHT22;1336;48.692;9.144;2023-03-31T07:16:11;11.20;97.20
2653;DHT22;1336;48.692;9.144;2023-03-31T07:17:04;11.20;97.20
2653;DHT22;1336;48.692;9.144;2023-03-31T07:17:55;11.20;97.20
2653;DHT22;1336;48.692;9.144;2023-03-31T07:18:51;11.20;97.20
2653;DHT22;1336;48.692;9.144;2023-03-31T07:19:44;11.20;97.20
2653;DHT22;1336;48.692;9.144;2023-03-31T07:20:38;11.20;97.20
2653;DHT22;1336;48.692;9.144;2023-03-31T07:21:29;11.20;97.20
2653;DHT22;1336;48.692;9.144;2023-03-31T07:22:21;11.20;97.20
2653;DHT22;1336;48.692;9.144;2023-03-31T07:23:11;11.30;97.20
2653;DHT22;1336;48.692;9.144;2023-03-31T07:24:04;11.30;97.20
2653;DHT22;1336;48.692;9.144;2023-03-31T07:24:54;11.30;97.20
2653;DHT22;1336;48.692;9.144;2023-03-31T07:25:46;11.30;97.20
2653;DHT22;1336;48.692;9.144;2023-03-31T07:26:37;11.30;97.20
2653;DHT22;1336;48.692;9.144;2023-03-31T07:27:29;11.30;97.20
2653;DHT22;1336;48.692;9.144;2023-03-31T07:28:19;11.30;97.20
2653;DHT22;1336;48.692;9.144;2023-03-31T07:29:11;11.30;97.20
2653;DHT22;1336;48.692;9.144;2023-03-31T07:30:03;11.30;97.20
2653;DHT22;1336;48.692;9.144;2023-03-31T07:30:54;11.30;97.20
2653;DHT22;1336;48.692;9.144;2023-03-31T07:31:46;11.30;97.20
2653;DHT22;1336;48.692;9.144;2023-03-31T07:32:38;11.30;97.20
2653;DHT22;1336;48.692;9.144;2023-03-31T07:33:30;11.30;97.20
2653;DHT22;1336;48.692;9.144;2023-03-31T07:34:22;11.30;97.20
2653;DHT22;1336;48.692;9.144;2023-03-31T07:35:13;11.40;97.20
2653;DHT22;1336;48.692;9.144;2023-03-31T07:36:06;11.40;97.20
2653;DHT22;1336;48.692;9.144;2023-03-31T07:36:57;11.40;97.20
2653;DHT22;1336;48.692;9.144;2023-03-31T07:37:50;11.50;97.20
2653;DHT22;1336;48.692;9.144;2023-03-31T07:38:42;11.50;97.20
2653;DHT22;1336;48.692;9.144;2023-03-31T07:39:35;11.50;97.20
2653;DHT22;1336;48.692;9.144;2023-03-31T07:40:28;11.60;97.20
2653;DHT22;1336;48.692;9.144;2023-03-31T07:41:20;11.80;97.20
2653;DHT22;1336;48.692;9.144;2023-03-31T07:42:11;11.90;97.20
2653;DHT22;1336;48.692;9.144;2023-03-31T07:43:03;12.00;97.20
2653;DHT22;1336;48.692;9.144;2023-03-31T07:43:54;12.10;97.20
2653;DHT22;1336;48.692;9.144;2023-03-31T07:44:46;12.20;97.20
2653;DHT22;1336;48.692;9.144;2023-03-31T07:45:38;12.30;97.20
2653;DHT22;1336;48.692;9.144;2023-03-31T07:46:31;12.40;97.20
2653;DHT22;1336;48.692;9.144;2023-03-31T07:47:21;12.50;97.20
2653;DHT22;1336;48.692;9.144;2023-03-31T07:48:13;12.60;97.20
2653;DHT22;1336;48.692;9.144;2023-03-31T07:49:04;12.60;97.20
2653;DHT22;1336;48.692;9.144;2023-03-31T07:49:57;12.60;97.20
2653;DHT22;1336;48.692;9.144;2023-03-31T07:50:48;12.60;97.20
2653;DHT22;1336;48.692;9.144;2023-03-31T07:51:42;12.60;97.20
2653;DHT22;1336;48.692;9.144;2023-03-31T07:52:33;12.60;97.20
2653;DHT22;1336;48.692;9.144;2023-03-31T07:53:24;12.70;97.20
2653;DHT22;1336;48.692;9.144;2023-03-31T07:54:16;12.70;97.20
2653;DHT22;1336;48.692;9.144;2023-03-31T07:55:08;12.70;97.20
2653;DHT22;1336;48.692;9.144;2023-03-31T07:55:59;12.80;97.20
2653;DHT22;1336;48.692;9.144;2023-03-31T07:56:51;12.80;97.20
2653;DHT22;1336;48.692;9.144;2023-03-31T07:57:42;12.80;97.20
2653;DHT22;1336;48.692;9.144;2023-03-31T07:58:35;12.70;97.20
2653;DHT22;1336;48.692;9.144;2023-03-31T07:59:26;12.70;97.20
2653;DHT22;1336;48.692;9.144;2023-03-31T08:00:18;12.80;97.20
2653;DHT22;1336;48.692;9.144;2023-03-31T08:01:11;12.70;97.20
2653;DHT22;1336;48.692;9.144;2023-03-31T08:02:06;12.70;97.20
2653;DHT22;1336;48.692;9.144;2023-03-31T08:02:57;12.70;97.20
2653;DHT22;1336;48.692;9.144;2023-03-31T08:03:48;12.60;97.20
2653;DHT22;1336;48.692;9.144;2023-03-31T08:04:39;12.50;97.20
2653;DHT22;1336;48.692;9.144;2023-03-31T08:05:31;12.40;97.20
2653;DHT22;1336;48.692;9.144;2023-03-31T08:06:23;12.30;97.20
2653;DHT22;1336;48.692;9.144;2023-03-31T08:07:17;12.30;97.20
2653;DHT22;1336;48.692;9.144;2023-03-31T08:08:08;12.20;97.20
2653;DHT22;1336;48.692;9.144;2023-03-31T08:08:59;12.20;97.20
2653;DHT22;1336;48.692;9.144;2023-03-31T08:09:50;12.30;97.20
2653;DHT22;1336;48.692;9.144;2023-03-31T08:10:42;12.30;97.20
2653;DHT22;1336;48.692;9.144;2023-03-31T08:11:34;12.40;97.20
2653;DHT22;1336;48.692;9.144;2023-03-31T08:12:24;12.50;97.20
2653;DHT22;1336;48.692;9.144;2023-03-31T08:13:16;12.60;97.20
2653;DHT22;1336;48.692;9.144;2023-03-31T08:14:08;12.70;97.20
2653;DHT22;1336;48.692;9.144;2023-03-31T08:14:58;12.70;97.20
2653;DHT22;1336;48.692;9.144;2023-03-31T08:15:50;12.80;97.20
2653;DHT22;1336;48.692;9.144;2023-03-31T08:16:41;12.80;97.20
2653;DHT22;1336;48.692;9.144;2023-03-31T08:17:33;12.90;97.20
2653;DHT22;1336;48.692;9.144;2023-03-31T08:18:23;13.00;97.20
2653;DHT22;1336;48.692;9.144;2023-03-31T08:19:15;13.00;97.20
2653;DHT22;1336;48.692;9.144;2023-03-31T08:20:07;13.10;97.20
2653;DHT22;1336;48.692;9.144;2023-03-31T08:20:59;13.10;97.20
2653;DHT22;1336;48.692;9.144;2023-03-31T08:21:50;13.20;97.20
2653;DHT22;1336;48.692;9.144;2023-03-31T08:22:43;13.20;97.20
2653;DHT22;1336;48.692;9.144;2023-03-31T08:23:34;13.30;97.20
2653;DHT22;1336;48.692;9.144;2023-03-31T08:24:26;13.40;97.20
2653;DHT22;1336;48.692;9.144;2023-03-31T08:25:17;13.50;97.20
2653;DHT22;1336;48.692;9.144;2023-03-31T08:26:11;13.60;97.20
2653;DHT22;1336;48.692;9.144;2023-03-31T08:27:02;13.60;97.20
2653;DHT22;1336;48.692;9.144;2023-03-31T08:27:54;13.70;97.20
2653;DHT22;1336;48.692;9.144;2023-03-31T08:28:45;13.80;97.20
2653;DHT22;1336;48.692;9.144;2023-03-31T08:29:38;13.80;97.20
2653;DHT22;1336;48.692;9.144;2023-03-31T08:30:29;13.90;97.20
2653;DHT22;1336;48.692;9.144;2023-03-31T08:31:21;13.90;97.20
2653;DHT22;1336;48.692;9.144;2023-03-31T08:32:13;14.00;97.20
2653;DHT22;1336;48.692;9.144;2023-03-31T08:33:05;14.00;97.20
2653;DHT22;1336;48.692;9.144;2023-03-31T08:33:57;14.10;97.20
2653;DHT22;1336;48.692;9.144;2023-03-31T08:34:48;14.10;97.20
2653;DHT22;1336;48.692;9.144;2023-03-31T08:35:41;14.20;97.20
2653;DHT22;1336;48.692;9.144;2023-03-31T08:36:32;14.30;97.20
2653;DHT22;1336;48.692;9.144;2023-03-31T08:37:23;14.30;97.20
2653;DHT22;1336;48.692;9.144;2023-03-31T08:38:16;14.40;97.20
2653;DHT22;1336;48.692;9.144;2023-03-31T08:39:07;14.40;97.20
2653;DHT22;1336;48.692;9.144;2023-03-31T08:39:59;14.40;97.20
2653;DHT22;1336;48.692;9.144;2023-03-31T08:40:50;14.40;97.20
2653;DHT22;1336;48.692;9.144;2023-03-31T08:41:49;14.50;97.20
2653;DHT22;1336;48.692;9.144;2023-03-31T08:42:43;14.60;97.20
2653;DHT22;1336;48.692;9.144;2023-03-31T08:43:40;14.60;97.20
2653;DHT22;1336;48.692;9.144;2023-03-31T08:44:35;14.70;97.20
2653;DHT22;1336;48.692;9.144;2023-03-31T08:45:30;14.80;97.20
2653;DHT22;1336;48.692;9.144;2023-03-31T08:46:22;14.90;97.20
2653;DHT22;1336;48.692;9.144;2023-03-31T08:47:17;14.90;97.20
2653;DHT22;1336;48.692;9.144;2023-03-31T08:48:20;15.00;97.20
2653;DHT22;1336;48.692;9.144;2023-03-31T08:49:17;15.10;97.20
2653;DHT22;1336;48.692;9.144;2023-03-31T08:50:12;15.20;97.20
2653;DHT22;1336;48.692;9.144;2023-03-31T08:51:09;15.30;97.20
2653;DHT22;1336;48.692;9.144;2023-03-31T08:52:04;15.40;97.20
2653;DHT22;1336;48.692;9.144;2023-03-31T08:53:03;15.60;97.20
2653;DHT22;1336;48.692;9.144;2023-03-31T08:53:58;15.70;97.20
2653;DHT22;1336;48.692;9.144;2023-03-31T08:54:56;15.80;97.20
2653;DHT22;1336;48.692;9.144;2023-03-31T08:55:50;15.90;97.20
2653;DHT22;1336;48.692;9.144;2023-03-31T08:56:44;15.90;97.20
2653;DHT22;1336;48.692;9.144;2023-03-31T08:57:46;15.90;97.20
2653;DHT22;1336;48.692;9.144;2023-03-31T08:58:44;15.90;97.20
2653;DHT22;1336;48.692;9.144;2023-03-31T08:59:37;16.00;97.20
2653;DHT22;1336;48.692;9.144;2023-03-31T09:00:38;16.10;97.20
2653;DHT22;1336;48.692;9.144;2023-03-31T09:01:37;16.30;97.20
2653;DHT22;1336;48.692;9.144;2023-03-31T09:02:37;16.40;97.20
2653;DHT22;1336;48.692;9.144;2023-03-31T09:03:41;16.60;97.20
2653;DHT22;1336;48.692;9.144;2023-03-31T09:05:01;16.70;97.20
2653;DHT22;1336;48.692;9.144;2023-03-31T09:06:00;17.00;97.20
2653;DHT22;1336;48.692;9.144;2023-03-31T09:07:00;17.20;97.20
2653;DHT22;1336;48.692;9.144;2023-03-31T09:07:57;17.40;97.20
2653;DHT22;1336;48.692;9.144;2023-03-31T09:09:01;17.50;97.20
2653;DHT22;1336;48.692;9.144;2023-03-31T09:10:01;17.60;97.20
2653;DHT22;1336;48.692;9.144;2023-03-31T09:11:08;17.60;97.20
2653;DHT22;1336;48.692;9.144;2023-03-31T09:12:04;17.70;97.20
2653;DHT22;1336;48.692;9.144;2023-03-31T09:13:02;17.80;97.20
2653;DHT22;1336;48.692;9.144;2023-03-31T09:14:16;17.80;97.20
2653;DHT22;1336;48.692;9.144;2023-03-31T09:15:28;17.90;97.20
2653;DHT22;1336;48.692;9.144;2023-03-31T09:16:25;18.00;97.20
2653;DHT22;1336;48.692;9.144;2023-03-31T09:17:22;17.90;97.20
2653;DHT22;1336;48.692;9.144;2023-03-31T09:18:18;17.80;97.20
2653;DHT22;1336;48.692;9.144;2023-03-31T09:19:18;17.70;97.20
2653;DHT22;1336;48.692;9.144;2023-03-31T09:20:16;17.60;97.20
2653;DHT22;1336;48.692;9.144;2023-03-31T09:21:13;17.40;97.20
2653;DHT22;1336;48.692;9.144;2023-03-31T09:22:11;17.20;97.20
2653;DHT22;1336;48.692;9.144;2023-03-31T09:23:12;17.20;97.20
2653;DHT22;1336;48.692;9.144;2023-03-31T09:24:12;17.20;97.20
2653;DHT22;1336;48.692;9.144;2023-03-31T09:25:09;17.40;97.20
2653;DHT22;1336;48.692;9.144;2023-03-31T09:26:02;17.60;97.20
2653;DHT22;1336;48.692;9.144;2023-03-31T09:26:56;17.80;97.20
2653;DHT22;1336;48.692;9.144;2023-03-31T09:27:48;18.00;97.20
2653;DHT22;1336;48.692;9.144;2023-03-31T09:28:41;18.00;97.20
2653;DHT22;1336;48.692;9.144;2023-03-31T09:29:40;18.10;97.20
2653;DHT22;1336;48.692;9.144;2023-03-31T09:30:34;18.20;97.20
2653;DHT22;1336;48.692;9.144;2023-03-31T09:31:26;18.20;97.20
2653;DHT22;1336;48.692;9.144;2023-03-31T09:32:20;18.30;97.20
2653;DHT22;1336;48.692;9.144;2023-03-31T09:33:16;18.20;97.20
2653;DHT22;1336;48.692;9.144;2023-03-31T09:34:12;18.00;97.20
2653;DHT22;1336;48.692;9.144;2023-03-31T09:35:15;17.80;97.20
2653;DHT22;1336;48.692;9.144;2023-03-31T09:36:13;17.60;97.20
2653;DHT22;1336;48.692;9.144;2023-03-31T09:37:05;17.30;97.20
2653;DHT22;1336;48.692;9.144;2023-03-31T09:37:57;17.20;97.20
2653;DHT22;1336;48.692;9.144;2023-03-31T09:38:49;17.00;97.20
2653;DHT22;1336;48.692;9.144;2023-03-31T09:39:42;16.80;97.20
2653;DHT22;1336;48.692;9.144;2023-03-31T09:40:33;16.70;97.20
2653;DHT22;1336;48.692;9.144;2023-03-31T09:41:25;16.50;97.20
2653;DHT22;1336;48.692;9.144;2023-03-31T09:42:17;16.40;97.20
2653;DHT22;1336;48.692;9.144;2023-03-31T09:43:18;16.30;97.20
2653;DHT22;1336;48.692;9.144;2023-03-31T09:44:24;16.20;97.20
2653;DHT22;1336;48.692;9.144;2023-03-31T09:45:18;16.10;97.20
2653;DHT22;1336;48.692;9.144;2023-03-31T09:46:16;16.00;97.20
2653;DHT22;1336;48.692;9.144;2023-03-31T09:47:13;15.90;97.20
2653;DHT22;1336;48.692;9.144;2023-03-31T09:48:12;15.90;97.20
2653;DHT22;1336;48.692;9.144;2023-03-31T09:49:09;15.90;97.20
2653;DHT22;1336;48.692;9.144;2023-03-31T09:50:02;16.40;97.20
2653;DHT22;1336;48.692;9.144;2023-03-31T09:50:57;16.90;97.20
2653;DHT22;1336;48.692;9.144;2023-03-31T09:51:58;17.30;97.20
2653;DHT22;1336;48.692;9.144;2023-03-31T09:52:51;18.30;97.20
2653;DHT22;1336;48.692;9.144;2023-03-31T09:53:48;18.80;97.20
2653;DHT22;1336;48.692;9.144;2023-03-31T09:54:44;19.00;97.20
2653;DHT22;1336;48.692;9.144;2023-03-31T09:55:43;19.20;97.20
2653;DHT22;1336;48.692;9.144;2023-03-31T09:56:45;20.60;97.20
2653;DHT22;1336;48.692;9.144;2023-03-31T09:57:39;22.20;97.20
2653;DHT22;1336;48.692;9.144;2023-03-31T09:58:30;23.00;97.20
2653;DHT22;1336;48.692;9.144;2023-03-31T09:59:31;23.50;97.20
2653;DHT22;1336;48.692;9.144;2023-03-31T10:00:23;24.40;97.20
2653;DHT22;1336;48.692;9.144;2023-03-31T10:01:15;25.50;97.20
2653;DHT22;1336;48.692;9.144;2023-03-31T10:02:23;26.60;97.20
2653;DHT22;1336;48.692;9.144;2023-03-31T10:03:17;28.00;97.20
2653;DHT22;1336;48.692;9.144;2023-03-31T10:04:09;28.00;97.20
2653;DHT22;1336;48.692;9.144;2023-03-31T10:05:04;28.60;97.20
2653;DHT22;1336;48.692;9.144;2023-03-31T10:05:58;28.90;97.20
2653;DHT22;1336;48.692;9.144;2023-03-31T10:06:50;29.60;97.20
2653;DHT22;1336;48.692;9.144;2023-03-31T10:07:42;30.40;97.20
2653;DHT22;1336;48.692;9.144;2023-03-31T10:08:37;31.10;97.20
2653;DHT22;1336;48.692;9.144;2023-03-31T10:09:30;31.70;97.20
2653;DHT22;1336;48.692;9.144;2023-03-31T10:10:29;32.40;96.90
2653;DHT22;1336;48.692;9.144;2023-03-31T10:11:21;33.20;95.20
2653;DHT22;1336;48.692;9.144;2023-03-31T10:12:16;33.50;92.80
2653;DHT22;1336;48.692;9.144;2023-03-31T10:13:10;33.40;90.80
2653;DHT22;1336;48.692;9.144;2023-03-31T10:14:10;32.60;90.50
2653;DHT22;1336;48.692;9.144;2023-03-31T10:15:16;32.10;91.20
2653;DHT22;1336;48.692;9.144;2023-03-31T10:16:12;31.00;91.10
2653;DHT22;1336;48.692;9.144;2023-03-31T10:17:04;30.20;91.40
2653;DHT22;1336;48.692;9.144;2023-03-31T10:17:57;29.90;93.20
2653;DHT22;1336;48.692;9.144;2023-03-31T10:18:48;29.70;93.50
2653;DHT22;1336;48.692;9.144;2023-03-31T10:19:46;29.70;94.80
2653;DHT22;1336;48.692;9.144;2023-03-31T10:20:40;30.30;93.90
2653;DHT22;1336;48.692;9.144;2023-03-31T10:21:35;30.70;93.00
2653;DHT22;1336;48.692;9.144;2023-03-31T10:22:27;30.70;92.20
2653;DHT22;1336;48.692;9.144;2023-03-31T10:23:25;30.20;91.40
2653;DHT22;1336;48.692;9.144;2023-03-31T10:24:17;29.70;91.90
2653;DHT22;1336;48.692;9.144;2023-03-31T10:25:15;29.60;91.70
2653;DHT22;1336;48.692;9.144;2023-03-31T10:26:13;30.20;92.70
2653;DHT22;1336;48.692;9.144;2023-03-31T10:27:14;31.00;91.20
2653;DHT22;1336;48.692;9.144;2023-03-31T10:28:11;31.20;89.50
2653;DHT22;1336;48.692;9.144;2023-03-31T10:29:09;31.50;88.10
2653;DHT22;1336;48.692;9.144;2023-03-31T10:30:04;31.20;87.80
2653;DHT22;1336;48.692;9.144;2023-03-31T10:30:59;31.30;88.70
2653;DHT22;1336;48.692;9.144;2023-03-31T10:31:52;31.60;88.50
2653;DHT22;1336;48.692;9.144;2023-03-31T10:32:43;32.10;87.70
2653;DHT22;1336;48.692;9.144;2023-03-31T10:33:40;32.70;86.80
2653;DHT22;1336;48.692;9.144;2023-03-31T10:34:35;32.50;87.20
2653;DHT22;1336;48.692;9.144;2023-03-31T10:35:32;32.40;87.30
2653;DHT22;1336;48.692;9.144;2023-03-31T10:36:26;31.90;86.60
2653;DHT22;1336;48.692;9.144;2023-03-31T10:37:22;31.20;86.90
2653;DHT22;1336;48.692;9.144;2023-03-31T10:38:14;30.90;87.00
2653;DHT22;1336;48.692;9.144;2023-03-31T10:39:08;31.00;87.80
2653;DHT22;1336;48.692;9.144;2023-03-31T10:40:00;31.40;88.20
2653;DHT22;1336;48.692;9.144;2023-03-31T10:40:56;31.50;86.60
2653;DHT22;1336;48.692;9.144;2023-03-31T10:41:50;31.70;86.30
2653;DHT22;1336;48.692;9.144;2023-03-31T10:43:01;31.10;85.80
2653;DHT22;1336;48.692;9.144;2023-03-31T10:43:54;30.70;86.40
2653;DHT22;1336;48.692;9.144;2023-03-31T10:44:46;29.80;86.60
2653;DHT22;1336;48.692;9.144;2023-03-31T10:45:41;29.50;87.20
2653;DHT22;1336;48.692;9.144;2023-03-31T10:46:43;29.60;87.80
2653;DHT22;1336;48.692;9.144;2023-03-31T10:47:38;29.10;88.90
2653;DHT22;1336;48.692;9.144;2023-03-31T10:48:31;28.70;89.20
2653;DHT22;1336;48.692;9.144;2023-03-31T10:49:25;28.20;89.70